createdAt,value
2018-08-16T00:02:31.600Z,2.77
2018-08-16T00:05:13.387Z,3.50
2018-08-16T00:07:55.013Z,2.60
2018-08-16T00:10:36.704Z,3.23
2018-08-16T00:13:18.762Z,3.27
2018-08-16T00:15:59.878Z,3.77
2018-08-16T00:18:41.472Z,3.10
2018-08-16T00:21:23.183Z,2.80
2018-08-16T00:24:04.852Z,3.20
2018-08-16T00:26:46.542Z,3.40
2018-08-16T00:29:28.335Z,2.90
2018-08-16T00:32:09.964Z,2.67
2018-08-16T00:34:51.673Z,3.70
2018-08-16T00:37:33.224Z,3.23
2018-08-16T00:40:16.222Z,3.10
2018-08-16T00:42:57.570Z,3.07
2018-08-16T00:45:39.198Z,3.07
2018-08-16T00:48:21.618Z,3.50
2018-08-16T00:51:02.519Z,3.30
2018-08-16T00:53:44.044Z,3.10
2018-08-16T00:56:25.652Z,3.37
2018-08-16T00:59:06.614Z,3.23
2018-08-16T01:01:48.326Z,3.03
2018-08-16T01:04:30.213Z,3.03
2018-08-16T01:07:12.544Z,3.20
2018-08-16T01:09:53.813Z,3.20
2018-08-16T01:12:35.526Z,3.67
2018-08-16T01:15:17.620Z,4.27
2018-08-16T01:17:59.085Z,3.47
2018-08-16T01:20:40.731Z,3.43
2018-08-16T01:23:22.365Z,3.97
2018-08-16T01:26:04.095Z,3.07
2018-08-16T01:28:45.739Z,3.03
2018-08-16T01:31:27.518Z,3.47
2018-08-16T01:34:09.138Z,4.57
2018-08-16T01:36:51.321Z,3.20
2018-08-16T01:39:32.561Z,4.90
2018-08-16T01:42:14.211Z,3.60
2018-08-16T01:44:55.760Z,3.80
2018-08-16T01:47:37.370Z,4.00
2018-08-16T01:50:19.318Z,3.10
2018-08-16T01:53:01.822Z,3.57
2018-08-16T01:55:43.614Z,3.60
2018-08-16T01:58:25.389Z,3.03
2018-08-16T02:01:06.881Z,3.40
2018-08-16T02:03:49.314Z,3.40
2018-08-16T02:06:31.119Z,3.77
2018-08-16T02:09:12.785Z,3.87
2018-08-16T02:11:54.407Z,4.00
2018-08-16T02:14:36.446Z,3.87
2018-08-16T02:17:18.526Z,3.50
2018-08-16T02:20:00.197Z,4.20
2018-08-16T02:22:42.092Z,3.70
2018-08-16T02:25:23.697Z,3.60
2018-08-16T02:28:05.635Z,3.70
2018-08-16T02:30:46.775Z,3.80
2018-08-16T02:33:28.522Z,4.13
2018-08-16T02:36:10.096Z,4.17
2018-08-16T02:38:52.058Z,4.10
2018-08-16T02:41:33.956Z,3.83
2018-08-16T02:44:15.133Z,3.90
2018-08-16T02:46:56.013Z,3.50
2018-08-16T02:49:36.797Z,4.60
2018-08-16T02:52:18.722Z,3.57
2018-08-16T02:55:00.083Z,3.50
2018-08-16T02:57:41.751Z,3.90
2018-08-16T03:00:23.324Z,4.20
2018-08-16T03:03:05.029Z,4.00
2018-08-16T03:05:46.819Z,4.00
2018-08-16T03:08:28.479Z,3.90
2018-08-16T03:11:10.100Z,4.00
2018-08-16T03:13:51.913Z,3.87
2018-08-16T03:16:32.637Z,3.83
2018-08-16T03:19:14.394Z,4.17
2018-08-16T03:21:55.949Z,3.90
2018-08-16T03:24:39.130Z,3.60
2018-08-16T03:27:20.658Z,4.13
2018-08-16T03:30:02.125Z,4.00
2018-08-16T03:32:43.704Z,4.60
2018-08-16T03:35:25.553Z,3.93
2018-08-16T03:38:07.642Z,3.80
2018-08-16T03:40:48.915Z,4.27
2018-08-16T03:43:30.479Z,3.90
2018-08-16T03:46:12.282Z,3.57
2018-08-16T03:48:53.875Z,3.63
2018-08-16T03:51:35.557Z,4.33
2018-08-16T03:54:17.222Z,4.10
2018-08-16T03:56:58.897Z,3.87
2018-08-16T03:59:40.917Z,4.13
2018-08-16T04:02:22.126Z,4.30
2018-08-16T04:05:03.868Z,4.00
2018-08-16T04:07:46.537Z,3.90
2018-08-16T04:10:28.110Z,4.87
2018-08-16T04:13:09.643Z,4.10
2018-08-16T04:15:51.505Z,3.70
2018-08-16T04:18:33.115Z,4.13
2018-08-16T04:21:15.397Z,4.00
2018-08-16T04:23:57.595Z,4.53
2018-08-16T04:26:39.199Z,3.90
2018-08-16T04:29:20.809Z,4.13
2018-08-16T04:32:02.684Z,4.10
2018-08-16T04:34:44.349Z,3.97
2018-08-16T04:37:25.821Z,4.27
2018-08-16T04:40:07.687Z,4.40
2018-08-16T04:42:49.306Z,5.00
2018-08-16T04:45:29.895Z,4.63
2018-08-16T04:48:11.684Z,4.20
2018-08-16T04:50:53.496Z,5.03
2018-08-16T04:53:34.996Z,5.10
2018-08-16T04:56:16.569Z,4.63
2018-08-16T04:58:58.496Z,5.50
2018-08-16T05:01:39.842Z,5.30
2018-08-16T05:04:21.897Z,5.17
2018-08-16T05:07:04.033Z,5.20
2018-08-16T05:09:45.119Z,5.20
2018-08-16T05:12:26.834Z,5.30
2018-08-16T05:15:08.502Z,5.80
2018-08-16T05:17:50.193Z,5.33
2018-08-16T05:20:32.329Z,6.27
2018-08-16T05:23:13.533Z,5.73
2018-08-16T05:25:55.210Z,5.90
2018-08-16T05:28:36.846Z,5.47
2018-08-16T05:31:18.447Z,6.33
2018-08-16T05:34:00.200Z,6.20
2018-08-16T05:36:41.961Z,6.17
2018-08-16T05:39:24.083Z,5.60
2018-08-16T05:42:05.255Z,6.50
2018-08-16T05:44:46.824Z,5.80
2018-08-16T05:47:28.504Z,6.10
2018-08-16T05:50:11.631Z,5.20
2018-08-16T05:52:53.065Z,6.10
2018-08-16T05:55:34.809Z,5.90
2018-08-16T05:58:16.513Z,4.70
2018-08-16T06:00:58.274Z,6.20
2018-08-16T06:03:39.957Z,5.93
2018-08-16T06:06:21.418Z,5.70
2018-08-16T06:09:03.130Z,5.93
2018-08-16T06:11:45.022Z,5.77
2018-08-16T06:14:26.432Z,5.93
2018-08-16T06:17:08.062Z,4.83
2018-08-16T06:19:49.814Z,6.10
2018-08-16T06:22:31.312Z,5.00
2018-08-16T06:25:14.601Z,4.53
2018-08-16T06:27:56.085Z,4.80
2018-08-16T06:30:37.299Z,4.93
2018-08-16T06:33:18.905Z,4.23
2018-08-16T06:35:59.685Z,5.20
2018-08-16T06:38:41.591Z,5.00
2018-08-16T06:41:23.809Z,5.37
2018-08-16T06:44:05.131Z,4.80
2018-08-16T06:46:46.569Z,4.60
2018-08-16T06:49:28.194Z,4.90
2018-08-16T06:52:09.079Z,5.20
2018-08-16T06:54:51.353Z,5.37
2018-08-16T06:57:32.580Z,4.77
2018-08-16T07:00:14.276Z,4.50
2018-08-16T07:02:55.820Z,4.63
2018-08-16T07:05:38.213Z,6.17
2018-08-16T07:08:20.234Z,5.17
2018-08-16T07:11:01.585Z,5.50
2018-08-16T07:13:43.265Z,5.47
2018-08-16T07:16:24.809Z,4.50
2018-08-16T07:19:05.627Z,5.73
2018-08-16T07:21:47.375Z,4.77
2018-08-16T07:24:29.590Z,5.07
2018-08-16T07:27:10.866Z,4.57
2018-08-16T07:29:52.549Z,4.50
2018-08-16T07:32:34.144Z,4.97
2018-08-16T07:35:15.909Z,4.30
2018-08-16T07:37:57.717Z,4.93
2018-08-16T07:40:39.311Z,4.70
2018-08-16T07:43:20.888Z,5.10
2018-08-16T07:46:03.682Z,5.03
2018-08-16T07:48:45.772Z,4.67
2018-08-16T07:51:26.984Z,4.60
2018-08-16T07:54:08.502Z,5.10
2018-08-16T07:56:50.171Z,4.77
2018-08-16T07:59:30.908Z,4.60
2018-08-16T08:02:12.428Z,4.60
2018-08-16T08:04:53.196Z,4.47
2018-08-16T08:07:33.982Z,4.67
2018-08-16T08:10:15.676Z,5.60
2018-08-16T08:12:57.279Z,4.70
2018-08-16T08:15:40.840Z,5.10
2018-08-16T08:18:22.692Z,4.20
2018-08-16T08:21:04.256Z,3.80
2018-08-16T08:23:45.779Z,4.67
2018-08-16T08:26:27.339Z,4.37
2018-08-16T08:29:09.166Z,4.47
2018-08-16T08:31:50.745Z,4.00
2018-08-16T08:34:32.106Z,3.90
2018-08-16T08:37:13.670Z,3.70
2018-08-16T08:39:55.637Z,4.50
2018-08-16T08:42:36.986Z,4.50
2018-08-16T08:45:18.499Z,4.50
2018-08-16T08:48:00.161Z,4.87
2018-08-16T08:50:41.784Z,3.97
2018-08-16T08:53:23.595Z,5.03
2018-08-16T08:56:05.182Z,4.10
2018-08-16T08:58:46.853Z,4.10
2018-08-16T09:01:29.288Z,4.10
2018-08-16T09:04:10.101Z,3.80
2018-08-16T09:06:51.704Z,3.50
2018-08-16T09:09:33.467Z,4.40
2018-08-16T09:12:16.554Z,4.73
2018-08-16T09:14:57.892Z,3.83
2018-08-16T09:17:39.473Z,3.97
2018-08-16T09:20:21.588Z,4.10
2018-08-16T09:23:02.864Z,3.73
2018-08-16T09:25:44.528Z,3.37
2018-08-16T09:28:26.140Z,3.50
2018-08-16T09:31:07.820Z,3.93
2018-08-16T09:33:49.541Z,3.60
2018-08-16T09:36:30.329Z,4.20
2018-08-16T09:39:11.931Z,4.57
2018-08-16T09:41:53.543Z,5.00
2018-08-16T09:44:35.740Z,4.30
2018-08-16T09:47:16.837Z,4.70
2018-08-16T09:49:58.476Z,3.70
2018-08-16T09:52:40.102Z,3.93
2018-08-16T09:55:23.231Z,4.03
2018-08-16T09:58:04.706Z,4.07
2018-08-16T10:00:51.222Z,4.20
2018-08-16T10:03:32.889Z,3.90
2018-08-16T10:06:14.408Z,4.50
2018-08-16T10:08:56.098Z,4.90
2018-08-16T10:11:37.930Z,4.20
2018-08-16T10:14:19.943Z,4.33
2018-08-16T10:17:01.200Z,4.10
2018-08-16T10:19:42.838Z,4.27
2018-08-16T10:22:24.624Z,3.70
2018-08-16T10:25:06.425Z,3.87
2018-08-16T10:27:48.143Z,4.10
2018-08-16T10:30:29.654Z,3.97
2018-08-16T10:33:11.731Z,4.40
2018-08-16T10:35:54.171Z,4.60
2018-08-16T10:38:35.593Z,4.20
2018-08-16T10:41:16.916Z,4.33
2018-08-16T10:43:59.069Z,3.60
2018-08-16T10:46:40.169Z,3.10
2018-08-16T10:49:21.841Z,4.17
2018-08-16T10:52:03.732Z,4.70
2018-08-16T10:54:45.264Z,3.57
2018-08-16T10:57:26.976Z,4.30
2018-08-16T11:00:08.675Z,3.90
2018-08-16T11:02:50.137Z,4.23
2018-08-16T11:05:30.905Z,3.37
2018-08-16T11:08:13.469Z,3.53
2018-08-16T11:10:54.449Z,3.97
2018-08-16T11:13:35.940Z,4.53
2018-08-16T11:16:17.593Z,4.50
2018-08-16T11:18:59.792Z,3.50
2018-08-16T11:21:41.050Z,3.87
2018-08-16T11:24:22.264Z,3.27
2018-08-16T11:27:03.871Z,4.33
2018-08-16T11:29:45.833Z,3.40
2018-08-16T11:32:27.144Z,3.50
2018-08-16T11:35:08.938Z,3.70
2018-08-16T11:37:49.704Z,3.80
2018-08-16T11:40:31.291Z,3.63
2018-08-16T11:43:12.965Z,3.77
2018-08-16T11:45:54.512Z,3.47
2018-08-16T11:48:35.173Z,3.53
2018-08-16T11:51:16.630Z,3.80
2018-08-16T11:53:58.214Z,3.97
2018-08-16T11:56:39.761Z,3.97
2018-08-16T11:59:21.454Z,3.50
2018-08-16T12:02:03.761Z,3.37
2018-08-16T12:04:44.550Z,3.23
2018-08-16T12:07:26.174Z,3.67
2018-08-16T12:10:07.772Z,3.13
2018-08-16T12:12:49.531Z,3.20
2018-08-16T12:15:31.745Z,3.17
2018-08-16T12:18:12.835Z,2.90
2018-08-16T12:20:53.728Z,3.23
2018-08-16T12:23:35.378Z,4.37
2018-08-16T12:26:16.917Z,3.30
2018-08-16T12:28:57.718Z,3.20
2018-08-16T12:31:39.921Z,3.00
2018-08-16T12:34:21.004Z,3.30
2018-08-16T12:37:03.195Z,3.67
2018-08-16T12:39:44.333Z,3.00
2018-08-16T12:42:25.705Z,4.23
2018-08-16T12:45:06.650Z,3.20
2018-08-16T12:47:48.236Z,3.00
2018-08-16T12:50:29.757Z,3.17
2018-08-16T12:53:11.465Z,3.57
2018-08-16T12:55:52.229Z,3.03
2018-08-16T12:58:33.976Z,3.43
2018-08-16T13:01:15.554Z,3.37
2018-08-16T13:03:57.053Z,3.43
2018-08-16T13:06:38.985Z,3.20
2018-08-16T13:09:20.439Z,3.03
2018-08-16T13:12:02.036Z,3.13
2018-08-16T13:14:43.624Z,3.20
2018-08-16T13:17:25.260Z,3.10
2018-08-16T13:20:06.844Z,3.50
2018-08-16T13:22:47.705Z,2.70
2018-08-16T13:25:28.478Z,2.80
2018-08-16T13:28:09.821Z,2.97
2018-08-16T13:30:51.011Z,3.73
2018-08-16T13:33:32.586Z,2.80
2018-08-16T13:36:14.365Z,3.40
2018-08-16T13:38:56.168Z,3.40
2018-08-16T13:41:37.707Z,2.73
2018-08-16T13:44:19.306Z,2.50
2018-08-16T13:47:01.656Z,3.50
2018-08-16T13:49:42.761Z,2.90
2018-08-16T13:52:24.429Z,3.33
2018-08-16T13:55:06.064Z,2.80
2018-08-16T13:57:47.608Z,3.30
2018-08-16T14:00:29.344Z,3.10
2018-08-16T14:03:10.236Z,2.80
2018-08-16T14:05:52.086Z,3.13
2018-08-16T14:08:33.583Z,3.00
2018-08-16T14:11:14.394Z,3.00
2018-08-16T14:13:55.147Z,3.50
2018-08-16T14:16:37.251Z,3.20
2018-08-16T14:19:18.300Z,3.10
2018-08-16T14:22:00.002Z,3.53
2018-08-16T14:24:41.027Z,3.47
2018-08-16T14:27:22.575Z,3.13
2018-08-16T14:30:04.329Z,3.57
2018-08-16T14:32:45.822Z,3.50
2018-08-16T14:35:28.346Z,2.97
2018-08-16T14:38:09.280Z,2.97
2018-08-16T14:40:50.850Z,3.60
2018-08-16T14:43:32.506Z,3.60
2018-08-16T14:46:14.217Z,4.23
2018-08-16T14:48:55.845Z,4.10
2018-08-16T14:51:37.339Z,3.17
2018-08-16T14:54:18.198Z,3.13
2018-08-16T14:56:59.692Z,2.80
2018-08-16T14:59:41.105Z,3.00
2018-08-16T15:02:22.697Z,3.07
2018-08-16T15:05:04.253Z,3.13
2018-08-16T15:07:47.385Z,3.23
2018-08-16T15:10:28.735Z,3.00
2018-08-16T15:13:10.261Z,2.47
2018-08-16T15:15:51.909Z,2.90
2018-08-16T15:18:33.702Z,2.70
2018-08-16T15:21:14.491Z,2.70
2018-08-16T15:23:55.366Z,2.87
2018-08-16T15:26:37.506Z,2.77
2018-08-16T15:29:20.272Z,2.80
2018-08-16T15:32:01.572Z,2.60
2018-08-16T15:34:43.000Z,3.00
2018-08-16T15:37:25.678Z,3.07
2018-08-16T15:40:06.488Z,2.50
2018-08-16T15:42:48.241Z,3.43
2018-08-16T15:45:29.050Z,3.10
2018-08-16T15:48:14.706Z,2.57
2018-08-16T15:50:56.470Z,2.20
2018-08-16T15:53:38.516Z,2.57
2018-08-16T15:56:19.889Z,2.20
2018-08-16T15:59:01.737Z,3.57
2018-08-16T16:01:43.472Z,2.77
2018-08-16T16:04:25.036Z,2.97
2018-08-16T16:07:06.648Z,2.87
2018-08-16T16:09:48.278Z,2.73
2018-08-16T16:12:29.962Z,2.77
2018-08-16T16:15:11.653Z,2.67
2018-08-16T16:17:53.779Z,2.70
2018-08-16T16:20:34.955Z,3.00
2018-08-16T16:23:16.647Z,3.00
2018-08-16T16:25:58.399Z,8.37
2018-08-16T16:28:39.120Z,2.83
2018-08-16T16:31:19.842Z,2.67
2018-08-16T16:34:00.505Z,2.30
2018-08-16T16:36:41.228Z,2.47
2018-08-16T16:39:22.025Z,2.80
2018-08-16T16:42:03.628Z,2.43
2018-08-16T16:44:45.433Z,3.13
2018-08-16T16:47:27.186Z,2.90
2018-08-16T16:50:09.039Z,3.27
2018-08-16T16:52:50.447Z,2.70
2018-08-16T16:55:32.081Z,3.30
2018-08-16T16:58:14.400Z,3.17
2018-08-16T17:00:55.456Z,3.30
2018-08-16T17:03:38.217Z,3.57
2018-08-16T17:06:19.720Z,2.70
2018-08-16T17:09:01.496Z,2.87
2018-08-16T17:11:43.151Z,2.70
2018-08-16T17:14:25.266Z,2.87
2018-08-16T17:17:06.520Z,3.03
2018-08-16T17:19:48.394Z,3.00
2018-08-16T17:22:29.927Z,3.40
2018-08-16T17:25:11.613Z,2.70
2018-08-16T17:27:53.480Z,2.30
2018-08-16T17:30:35.138Z,2.70
2018-08-16T17:33:16.777Z,3.00
2018-08-16T17:35:58.481Z,2.70
2018-08-16T17:38:39.985Z,2.90
2018-08-16T17:41:21.718Z,2.70
2018-08-16T17:44:03.675Z,2.57
2018-08-16T17:46:45.552Z,2.50
2018-08-16T17:49:27.297Z,2.73
2018-08-16T17:52:08.996Z,2.43
2018-08-16T17:54:50.615Z,2.83
2018-08-16T17:57:32.244Z,2.60
2018-08-16T18:00:14.401Z,3.03
2018-08-16T18:02:55.536Z,2.77
2018-08-16T18:05:39.235Z,3.33
2018-08-16T18:08:21.534Z,4.70
2018-08-16T18:11:03.360Z,2.70
2018-08-16T18:13:44.492Z,3.80
2018-08-16T18:16:26.192Z,6.03
2018-08-16T18:19:07.883Z,2.97
2018-08-16T18:21:49.509Z,2.80
2018-08-16T18:24:31.283Z,2.70
2018-08-16T18:27:12.948Z,2.70
2018-08-16T18:29:54.595Z,3.07
2018-08-16T18:32:36.307Z,3.20
2018-08-16T18:35:17.975Z,2.83
2018-08-16T18:38:00.403Z,2.67
2018-08-16T18:40:41.276Z,3.80
2018-08-16T18:43:22.875Z,2.67
2018-08-16T18:46:05.904Z,2.70
2018-08-16T18:48:47.498Z,3.00
2018-08-16T18:51:29.203Z,2.83
2018-08-16T18:54:11.172Z,3.20
2018-08-16T18:56:52.660Z,2.80
2018-08-16T18:59:34.207Z,3.00
2018-08-16T19:02:15.911Z,2.70
2018-08-16T19:04:58.100Z,2.90
2018-08-16T19:07:39.200Z,2.57
2018-08-16T19:10:20.924Z,2.23
2018-08-16T19:13:03.362Z,2.70
2018-08-16T19:15:44.244Z,2.30
2018-08-16T19:18:25.979Z,2.50
2018-08-16T19:21:07.684Z,4.03
2018-08-16T19:23:49.377Z,4.63
2018-08-16T19:26:31.018Z,3.73
2018-08-16T19:29:11.792Z,3.10
2018-08-16T19:31:53.448Z,2.80
2018-08-16T19:34:35.078Z,3.10
2018-08-16T19:37:16.764Z,3.10
2018-08-16T19:39:58.244Z,3.10
2018-08-16T19:42:39.860Z,3.43
2018-08-16T19:45:21.354Z,2.90
2018-08-16T19:48:03.209Z,3.00
2018-08-16T19:50:44.992Z,2.83
2018-08-16T19:53:26.574Z,2.90
2018-08-16T19:56:08.070Z,2.70
2018-08-16T19:58:50.275Z,2.80
2018-08-16T20:01:31.596Z,2.77
2018-08-16T20:04:13.382Z,2.67
2018-08-16T20:06:56.182Z,2.60
2018-08-16T20:09:37.756Z,3.10
2018-08-16T20:12:19.514Z,4.37
2018-08-16T20:15:01.176Z,13.30
2018-08-16T20:17:42.836Z,7.20
2018-08-16T20:20:24.390Z,6.00
2018-08-16T20:23:06.036Z,5.10
2018-08-16T20:25:47.323Z,3.47
2018-08-16T20:28:28.492Z,2.70
2018-08-16T20:31:10.226Z,3.17
2018-08-16T20:33:52.910Z,3.03
2018-08-16T20:36:34.868Z,3.77
2018-08-16T20:39:16.552Z,3.13
2018-08-16T20:41:57.639Z,2.90
2018-08-16T20:44:39.188Z,3.03
2018-08-16T20:47:20.859Z,1.90
2018-08-16T20:50:02.447Z,3.13
2018-08-16T20:52:44.487Z,2.97
2018-08-16T20:55:25.889Z,3.40
2018-08-16T20:58:06.643Z,5.40
2018-08-16T21:00:48.301Z,5.20
2018-08-16T21:03:30.851Z,4.73
2018-08-16T21:06:11.850Z,3.60
2018-08-16T21:08:53.321Z,2.83
2018-08-16T21:11:35.090Z,3.50
2018-08-16T21:14:16.649Z,5.67
2018-08-16T21:16:59.431Z,4.23
2018-08-16T21:19:41.745Z,3.17
2018-08-16T21:22:23.120Z,4.93
2018-08-16T21:25:04.623Z,4.90
2018-08-16T21:27:47.729Z,4.90
2018-08-16T21:30:29.234Z,3.90
2018-08-16T21:33:10.702Z,3.83
2018-08-16T21:35:52.158Z,4.80
2018-08-16T21:38:34.669Z,4.77
2018-08-16T21:41:15.483Z,5.50
2018-08-16T21:43:57.077Z,4.27
2018-08-16T21:46:37.927Z,4.57
2018-08-16T21:49:19.603Z,4.10
2018-08-16T21:52:01.863Z,3.37
2018-08-16T21:54:43.315Z,3.77
2018-08-16T21:57:24.693Z,4.80
2018-08-16T22:00:06.185Z,4.93
2018-08-16T22:02:47.769Z,5.97
2018-08-16T22:05:29.150Z,4.27
2018-08-16T22:08:13.072Z,3.80
2018-08-16T22:10:54.753Z,4.90
2018-08-16T22:13:36.598Z,4.40
2018-08-16T22:16:19.064Z,3.40
2018-08-16T22:19:00.622Z,3.60
2018-08-16T22:21:42.135Z,3.70
2018-08-16T22:24:23.044Z,3.50
2018-08-16T22:27:05.020Z,3.20
2018-08-16T22:29:47.255Z,3.17
2018-08-16T22:32:28.394Z,3.20
2018-08-16T22:35:09.982Z,3.63
2018-08-16T22:37:52.178Z,3.20
2018-08-16T22:40:33.624Z,3.40
2018-08-16T22:43:15.228Z,3.60
2018-08-16T22:45:56.983Z,3.33
2018-08-16T22:48:39.752Z,3.53
2018-08-16T22:51:21.558Z,3.43
2018-08-16T22:54:03.214Z,3.60
2018-08-16T22:56:44.728Z,3.10
2018-08-16T22:59:26.544Z,3.23
2018-08-16T23:02:08.167Z,3.30
2018-08-16T23:04:48.979Z,4.47
2018-08-16T23:07:30.512Z,3.60
2018-08-16T23:10:12.032Z,3.90
2018-08-16T23:12:53.175Z,3.80
2018-08-16T23:15:34.798Z,3.80
2018-08-16T23:18:16.409Z,3.33
2018-08-16T23:20:58.095Z,3.33
2018-08-16T23:23:39.806Z,3.43
2018-08-16T23:26:21.542Z,3.80
2018-08-16T23:29:03.380Z,3.17
2018-08-16T23:31:45.010Z,4.20
2018-08-16T23:34:26.656Z,3.20
2018-08-16T23:37:08.574Z,3.00
2018-08-16T23:39:50.331Z,3.20
2018-08-16T23:42:31.477Z,3.00
2018-08-16T23:45:13.001Z,3.40
2018-08-16T23:47:54.713Z,3.30
2018-08-16T23:50:36.475Z,3.60
2018-08-16T23:53:18.104Z,3.30
2018-08-16T23:55:58.968Z,3.10
2018-08-16T23:58:40.785Z,3.43
